LRBO - airport unknown

Compiled: 21:31:45 on 19/01/2018

Latest METAR/SPECI Reports

METAR LRBO 192100Z 30006KT 9999 SCT100 01/M01 Q1011 BLU BLU=

Previous reports

METAR LRBO 192000Z 30006KT 9999 SCT100 00/M01 Q1011 BLU BLU=
METAR LRBO 191900Z 26006KT 9999 SCT100 M00/M01 Q1010 BLU BLU=
METAR LRBO 191800Z 22006KT 9999 SCT100 M00/M01 Q1010 BLU BLU=
METAR LRBO 191700Z 24006KT 9999 SCT100 01/M01 Q1010 BLU BLU=

Latest TAF report

TAF LRBO 191700Z 1918/2018 22008KT 9999 SCT100 BECMG 1923/2001 SCT030 BKN080 TEMPO 2006/2010 34012KT 4000 RASN BR BKN010 OVC020 BECMG 2013/2015 04014KT 3000 RASN BR BKN005 OVC015=

Valid WARNINGS

No valid warnings for LRBO